Time;durP1;ratioP1;P1;durP2;ratioP2;P2;SDS_P1;SDS_P2;PMS_P1;PMS_P2;Temp;Humidity;BMP_temperature;BMP_pressure;BME280_temperature;BME280_humidity;BME280_pressure;Samples;Min_cycle;Max_cycle;Signal;HPM_P1;HPM_P2
2022/07/31 00:01:53;;;;;;;4.53;2.60;;;;;;;21.14;66.19;99524.98;1715459;83;21108;-80
2022/07/31 00:04:19;;;;;;;5.33;2.33;;;;;;;21.12;66.34;99520.24;1739193;80;21718;-81
2022/07/31 00:06:45;;;;;;;3.27;2.22;;;;;;;21.12;66.40;99522.08;1762679;80;21449;-80
2022/07/31 00:09:12;;;;;;;3.72;2.52;;;;;;;21.06;66.59;99511.35;1762251;81;21060;-81
2022/07/31 00:11:41;;;;;;;4.08;2.40;;;;;;;21.01;66.55;99510.02;1762333;81;21122;-82
2022/07/31 00:14:09;;;;;;;4.35;2.62;;;;;;;20.96;66.66;99507.69;1761982;81;21111;-83
2022/07/31 00:16:36;;;;;;;5.60;2.50;;;;;;;20.91;66.64;99504.53;1729393;80;21090;-81
2022/07/31 00:19:02;;;;;;;6.85;2.50;;;;;;;20.86;66.64;99508.05;1728213;83;21503;-82
2022/07/31 00:21:29;;;;;;;4.85;2.67;;;;;;;20.84;66.70;99501.97;1728171;83;21001;-80
2022/07/31 00:23:56;;;;;;;2.85;2.37;;;;;;;20.80;66.50;99493.84;1728032;82;21009;-81
2022/07/31 00:26:22;;;;;;;2.75;2.30;;;;;;;20.78;66.52;99493.45;1728403;83;21072;-83
2022/07/31 00:28:49;;;;;;;9.28;2.70;;;;;;;20.74;66.42;99487.96;1728207;82;21212;-83
2022/07/31 00:31:17;;;;;;;4.15;2.22;;;;;;;20.71;66.27;99497.59;1728442;83;21486;-77
2022/07/31 00:33:43;;;;;;;3.98;2.40;;;;;;;20.68;66.22;99495.61;1728301;82;21100;-81
2022/07/31 00:36:10;;;;;;;2.45;2.25;;;;;;;20.68;66.09;99492.47;1727972;83;21017;-81
2022/07/31 00:38:36;;;;;;;2.58;2.27;;;;;;;20.65;65.93;99494.04;1727775;82;21069;-82
2022/07/31 00:41:03;;;;;;;3.25;2.10;;;;;;;20.64;65.73;99496.33;1728322;82;21143;-83
2022/07/31 00:43:30;;;;;;;4.10;2.27;;;;;;;20.62;65.80;99491.56;1728311;82;21119;-82
2022/07/31 00:45:58;;;;;;;6.15;2.30;;;;;;;20.59;65.67;99495.34;1728028;82;21084;-80
2022/07/31 00:48:25;;;;;;;2.67;2.20;;;;;;;20.58;65.66;99487.44;1728195;82;21025;-82
2022/07/31 00:50:51;;;;;;;4.45;2.58;;;;;;;20.55;65.82;99491.18;1728182;82;21053;-80
2022/07/31 00:53:18;;;;;;;4.15;2.72;;;;;;;20.52;65.81;99487.89;1728429;83;21554;-82
2022/07/31 00:55:44;;;;;;;3.27;2.40;;;;;;;20.51;65.74;99496.87;1728234;83;20998;-83
2022/07/31 00:58:11;;;;;;;4.35;2.02;;;;;;;20.49;65.83;99498.32;1728294;83;21131;-82
2022/07/31 01:00:38;;;;;;;5.40;2.50;;;;;;;20.47;65.86;99491.41;1728028;83;21073;-80
2022/07/31 01:03:05;;;;;;;5.58;2.30;;;;;;;20.42;65.68;99490.41;1728095;83;20997;-79
2022/07/31 01:05:32;;;;;;;5.22;2.30;;;;;;;20.40;65.77;99491.02;1728006;83;21904;-83
2022/07/31 01:07:58;;;;;;;3.52;2.30;;;;;;;20.39;65.83;99490.17;1728043;83;20997;-80
2022/07/31 01:10:36;;;;;;;4.65;2.00;;;;;;;20.36;65.64;99490.41;1728219;83;21056;-82
2022/07/31 01:13:07;;;;;;;3.05;1.87;;;;;;;20.35;65.61;99487.35;1679376;82;21071;-81
2022/07/31 01:15:35;;;;;;;6.83;2.40;;;;;;;20.33;65.58;99487.95;1728472;83;21073;-82
2022/07/31 01:18:03;;;;;;;3.77;2.05;;;;;;;20.30;65.63;99485.52;1728536;82;21489;-82
2022/07/31 01:20:29;;;;;;;4.03;1.85;;;;;;;20.28;65.66;99480.77;1702653;82;21028;-82
2022/07/31 01:23:41;;;;;;;7.00;2.30;;;;;;;20.27;65.49;99484.41;1727805;83;22055;-80
2022/07/31 01:26:38;;;;;;;3.10;2.25;;;;;;;20.25;65.43;99479.66;1725952;82;22013;-82
2022/07/31 01:29:27;;;;;;;4.08;2.17;;;;;;;20.25;65.36;99480.16;1727857;82;21076;-80
2022/07/31 01:32:02;;;;;;;6.40;2.27;;;;;;;20.22;65.30;99478.56;1728410;82;21138;-82
2022/07/31 01:34:51;;;;;;;4.75;2.08;;;;;;;20.20;65.42;99473.33;1702186;82;21037;-82
2022/07/31 01:37:25;;;;;;;3.85;1.82;;;;;;;20.15;65.39;99469.31;1728184;82;21026;-81
2022/07/31 01:40:05;;;;;;;3.65;2.05;;;;;;;20.11;65.40;99467.84;1728355;82;21096;-82
2022/07/31 01:42:33;;;;;;;9.03;1.87;;;;;;;20.06;65.18;99466.85;1728154;83;21143;-78
2022/07/31 01:45:00;;;;;;;3.83;2.05;;;;;;;20.02;65.12;99464.90;1728304;82;21158;-82
2022/07/31 01:47:28;;;;;;;2.72;1.98;;;;;;;19.97;65.02;99456.38;1728408;82;21147;-81
2022/07/31 01:49:55;;;;;;;3.47;1.98;;;;;;;19.94;64.90;99455.73;1728184;82;21076;-82
2022/07/31 01:52:25;;;;;;;2.25;1.95;;;;;;;19.90;64.92;99457.78;1728253;82;20970;-82
2022/07/31 01:54:52;;;;;;;2.33;1.98;;;;;;;19.89;65.07;99460.10;1728247;83;21132;-82
2022/07/31 01:57:21;;;;;;;3.52;1.90;;;;;;;19.85;65.24;99459.94;1728264;83;21142;-77
2022/07/31 01:59:52;;;;;;;1.90;1.62;;;;;;;19.83;65.25;99457.38;1728063;82;21040;-84
2022/07/31 02:02:21;;;;;;;1.77;1.67;;;;;;;19.83;64.96;99459.21;1728336;82;21045;-77
2022/07/31 02:04:47;;;;;;;6.08;1.70;;;;;;;19.81;64.82;99461.99;1728061;83;21009;-83
2022/07/31 02:07:14;;;;;;;2.30;1.75;;;;;;;19.81;64.79;99462.48;1740343;80;21052;-82
2022/07/31 02:09:42;;;;;;;5.08;1.80;;;;;;;19.79;64.74;99458.59;1762114;81;21594;-82
2022/07/31 02:12:10;;;;;;;2.10;1.85;;;;;;;19.79;64.69;99465.76;1762536;81;21546;-83
2022/07/31 02:14:39;;;;;;;2.60;1.82;;;;;;;19.78;64.75;99460.03;1750604;80;21080;-83
2022/07/31 02:17:07;;;;;;;4.25;1.70;;;;;;;19.75;64.69;99462.92;1728204;83;21073;-83
2022/07/31 02:19:42;;;;;;;2.15;1.60;;;;;;;19.71;64.60;99460.09;1717830;82;21104;-82
2022/07/31 02:22:08;;;;;;;5.00;1.62;;;;;;;19.68;64.62;99470.01;1721409;83;21114;-82
2022/07/31 02:24:35;;;;;;;6.15;1.70;;;;;;;19.65;64.60;99459.58;1721190;83;21014;-81
2022/07/31 02:27:03;;;;;;;4.17;1.70;;;;;;;19.63;64.67;99464.16;1720994;83;21473;-82
2022/07/31 02:29:31;;;;;;;8.05;2.67;;;;;;;19.61;64.91;99460.75;1721140;83;21123;-82
2022/07/31 02:31:58;;;;;;;4.22;1.75;;;;;;;19.58;64.95;99470.31;1721319;83;21155;-82
2022/07/31 02:34:25;;;;;;;3.95;2.00;;;;;;;19.58;65.04;99467.64;1721107;83;21204;-81
2022/07/31 02:36:52;;;;;;;2.33;1.87;;;;;;;19.55;65.06;99477.23;1721154;83;21326;-82
2022/07/31 02:39:19;;;;;;;4.15;1.92;;;;;;;19.54;65.35;99470.67;1721319;83;21061;-79
2022/07/31 02:41:46;;;;;;;4.80;2.33;;;;;;;19.51;65.47;99475.73;1721072;83;21021;-84
2022/07/31 02:44:14;;;;;;;2.67;1.95;;;;;;;19.52;65.45;99474.78;1721118;83;21116;-84
2022/07/31 02:46:41;;;;;;;5.08;1.82;;;;;;;19.54;65.59;99476.84;1720893;83;21861;-82
2022/07/31 02:49:08;;;;;;;3.37;1.95;;;;;;;19.54;65.73;99475.52;1720974;83;21065;-82
2022/07/31 02:51:35;;;;;;;2.80;1.72;;;;;;;19.54;65.91;99478.19;1720940;83;21594;-80
2022/07/31 02:54:03;;;;;;;4.53;1.67;;;;;;;19.54;66.11;99482.19;1720945;83;21512;-80
2022/07/31 02:56:29;;;;;;;2.45;1.70;;;;;;;19.52;66.13;99478.78;1720896;83;21606;-82
2022/07/31 02:58:56;;;;;;;1.90;1.60;;;;;;;19.56;66.25;99476.73;1721034;83;21240;-82
2022/07/31 03:01:24;;;;;;;2.20;1.75;;;;;;;19.55;66.37;99477.23;1677921;83;21006;-80
2022/07/31 03:03:51;;;;;;;2.85;1.65;;;;;;;19.54;66.59;99480.85;1721152;83;21006;-83
2022/07/31 03:06:18;;;;;;;4.37;1.85;;;;;;;19.54;66.74;99478.19;1720993;83;21568;-81
2022/07/31 03:08:44;;;;;;;4.62;2.10;;;;;;;19.52;66.88;99480.12;1721019;83;21052;-81
2022/07/31 03:11:12;;;;;;;2.80;1.90;;;;;;;19.53;67.09;99480.47;1700528;83;21619;-83
2022/07/31 03:13:42;;;;;;;2.52;1.95;;;;;;;19.54;67.21;99478.19;1721132;83;21599;-81
2022/07/31 03:16:10;;;;;;;2.00;1.80;;;;;;;19.56;67.43;99482.92;1721194;83;21599;-84
2022/07/31 03:18:38;;;;;;;7.03;2.00;;;;;;;19.59;67.54;99489.38;1720963;83;21066;-82
2022/07/31 03:21:05;;;;;;;4.33;1.80;;;;;;;19.60;67.50;99485.75;1721401;83;20994;-82
2022/07/31 03:23:35;;;;;;;3.17;1.70;;;;;;;19.62;67.46;99491.83;1720993;83;21068;-81
2022/07/31 03:26:04;;;;;;;2.17;1.80;;;;;;;19.64;67.39;99496.56;1656037;83;21565;-82
2022/07/31 03:28:33;;;;;;;3.83;1.70;;;;;;;19.67;67.46;99492.34;1721315;83;21030;-83
2022/07/31 03:31:00;;;;;;;1.75;1.40;;;;;;;19.70;67.50;99489.91;1721070;83;20994;-81
2022/07/31 03:33:29;;;;;;;4.67;1.52;;;;;;;19.73;67.51;99479.52;1721261;83;21574;-83
2022/07/31 03:35:56;;;;;;;5.40;1.70;;;;;;;19.75;67.40;99473.11;1720881;83;21200;-83
2022/07/31 03:38:24;;;;;;;2.17;1.35;;;;;;;19.78;67.26;99476.05;1721358;83;21017;-82
2022/07/31 03:40:50;;;;;;;5.10;1.85;;;;;;;19.82;67.18;99477.52;1721076;83;20994;-80
2022/07/31 03:43:17;;;;;;;1.90;1.40;;;;;;;19.85;67.11;99477.30;1721022;83;21583;-82
2022/07/31 03:45:44;;;;;;;4.92;1.60;;;;;;;19.89;67.01;99471.24;1721050;83;21064;-81
2022/07/31 03:48:11;;;;;;;2.12;1.32;;;;;;;19.91;66.78;99480.86;1720882;83;21520;-84
2022/07/31 03:50:38;;;;;;;1.70;1.35;;;;;;;19.95;66.45;99471.64;1720973;83;21095;-81
2022/07/31 03:53:05;;;;;;;2.45;1.62;;;;;;;19.99;66.19;99474.96;1721322;83;21009;-81
2022/07/31 03:55:36;;;;;;;1.80;1.50;;;;;;;20.00;65.96;99469.97;1721253;83;21021;-83
2022/07/31 03:58:03;;;;;;;2.47;1.30;;;;;;;20.01;66.03;99473.86;1701995;83;21012;-83
2022/07/31 04:00:31;;;;;;;2.10;1.30;;;;;;;20.03;66.04;99469.25;1707265;84;21165;-83
2022/07/31 04:03:05;;;;;;;2.92;1.07;;;;;;;20.07;65.92;99471.70;1708035;83;21057;-82
2022/07/31 04:05:50;;;;;;;3.55;1.47;;;;;;;20.11;65.47;99477.20;1691321;84;21101;-83
2022/07/31 04:08:17;;;;;;;2.20;1.30;;;;;;;20.16;65.41;99476.37;1707785;83;21066;-82
2022/07/31 04:10:46;;;;;;;3.22;1.40;;;;;;;20.19;65.34;99474.31;1736856;81;20975;-83
2022/07/31 04:13:14;;;;;;;2.90;1.50;;;;;;;20.24;65.28;99473.97;1737118;82;21575;-83
2022/07/31 04:15:41;;;;;;;2.17;1.40;;;;;;;20.28;65.19;99468.75;1736842;82;21567;-83
2022/07/31 04:18:08;;;;;;;2.77;1.20;;;;;;;20.34;65.04;99470.09;1736749;82;21035;-82
2022/07/31 04:20:36;;;;;;;3.25;1.50;;;;;;;20.40;64.75;99460.28;1736674;82;21050;-80
2022/07/31 04:23:03;;;;;;;1.82;1.20;;;;;;;20.46;64.34;99467.84;1736272;82;20971;-82
2022/07/31 04:25:48;;;;;;;1.37;1.27;;;;;;;20.53;64.15;99468.23;1734308;82;21557;-80
2022/07/31 04:28:25;;;;;;;5.00;1.30;;;;;;;20.59;63.86;99471.74;1735866;82;21031;-82
2022/07/31 04:30:52;;;;;;;1.90;1.20;;;;;;;20.63;63.47;99473.26;1737416;82;21043;-83
2022/07/31 04:33:19;;;;;;;2.45;1.20;;;;;;;20.68;63.34;99479.10;1737066;82;21019;-83
2022/07/31 04:35:46;;;;;;;5.97;1.17;;;;;;;20.74;63.01;99475.09;1735713;82;20964;-83
2022/07/31 04:38:15;;;;;;;1.60;1.02;;;;;;;20.81;62.73;99480.81;1737004;82;21184;-81
2022/07/31 04:40:42;;;;;;;4.62;1.50;;;;;;;20.86;62.68;99475.46;1736649;82;21047;-82
2022/07/31 04:43:08;;;;;;;1.85;1.20;;;;;;;20.91;62.49;99474.64;1737345;82;21109;-82
2022/07/31 04:45:35;;;;;;;5.92;1.10;;;;;;;20.94;62.43;99477.55;1736945;82;21609;-82
2022/07/31 04:48:02;;;;;;;6.90;1.30;;;;;;;20.99;62.21;99479.38;1736856;82;21573;-82
2022/07/31 04:50:29;;;;;;;4.80;1.55;;;;;;;21.03;61.77;99480.86;1717623;82;21155;-80
2022/07/31 04:52:59;;;;;;;4.40;1.20;;;;;;;21.07;61.28;99474.28;1709297;83;21087;-83
2022/07/31 04:55:28;;;;;;;1.35;0.90;;;;;;;21.12;61.32;99480.61;1708484;83;21142;-84
2022/07/31 04:57:55;;;;;;;5.45;1.50;;;;;;;21.14;60.91;99476.82;1708855;83;21063;-83
2022/07/31 05:00:21;;;;;;;3.62;1.10;;;;;;;21.13;60.63;99483.16;1709070;83;21424;-81
2022/07/31 05:02:48;;;;;;;1.72;1.20;;;;;;;21.14;60.85;99474.14;1708939;83;21119;-83
2022/07/31 05:05:17;;;;;;;7.72;1.37;;;;;;;21.18;60.62;99481.94;1709033;83;20953;-82
2022/07/31 05:07:44;;;;;;;1.25;1.10;;;;;;;21.21;60.72;99468.31;1709018;82;21126;-83
2022/07/31 05:11:21;;;;;;;6.95;1.37;;;;;;;21.25;60.45;99466.63;1709349;83;21078;-84
2022/07/31 05:12:42;;;;;;;5.33;1.25;;;;;;;21.29;60.27;99461.88;1698594;83;21106;-82
2022/07/31 05:15:10;;;;;;;3.65;1.15;;;;;;;21.31;59.85;99467.45;1701713;84;21117;-80
2022/07/31 05:17:36;;;;;;;3.02;1.10;;;;;;;21.32;59.82;99457.61;1701972;84;21621;-82
2022/07/31 05:20:21;;;;;;;;;;;;;;;21.36;59.77;99460.89;1704332;84;22239;-81
2022/07/31 05:22:58;;;;;;;1.35;1.10;;;;;;;21.42;59.33;99458.58;1702983;82;20240;-83
2022/07/31 05:25:38;;;;;;;7.28;1.30;;;;;;;21.48;59.64;99459.92;1678752;84;21055;-83
2022/07/31 05:28:05;;;;;;;5.37;1.25;;;;;;;21.57;59.02;99461.00;1702130;84;21593;-83
2022/07/31 05:30:32;;;;;;;1.52;0.98;;;;;;;21.63;59.21;99458.67;1701963;84;21063;-83
2022/07/31 05:32:58;;;;;;;4.60;1.17;;;;;;;21.70;58.39;99466.59;1702110;84;21099;-83
2022/07/31 05:35:25;;;;;;;3.62;1.22;;;;;;;21.79;58.38;99466.31;1701862;84;21032;-82
2022/07/31 05:37:52;;;;;;;6.45;1.10;;;;;;;21.85;58.17;99469.80;1701668;84;21091;-82
2022/07/31 05:40:22;;;;;;;4.33;1.70;;;;;;;21.94;58.24;99474.92;1700841;84;22211;-82
2022/07/31 05:43:07;;;;;;;1.20;1.10;;;;;;;22.02;57.96;99470.24;1701985;84;21037;-81
2022/07/31 05:45:41;;;;;;;9.85;1.32;;;;;;;22.12;58.00;99474.35;1699271;84;21152;-83
2022/07/31 05:48:08;;;;;;;3.87;1.10;;;;;;;22.20;57.67;99472.73;1701920;84;21633;-84
2022/07/31 05:50:34;;;;;;;4.17;1.22;;;;;;;22.29;57.29;99468.45;1721525;82;20967;-83
2022/07/31 05:53:03;;;;;;;4.05;1.65;;;;;;;22.36;57.19;99466.10;1739744;80;21783;-83
2022/07/31 05:55:48;;;;;;;4.62;1.12;;;;;;;22.48;57.36;99474.47;1736832;82;20990;-80
2022/07/31 05:58:20;;;;;;;2.55;1.20;;;;;;;22.57;56.33;99469.64;1735703;82;21046;-82
2022/07/31 06:00:48;;;;;;;3.02;1.45;;;;;;;22.67;56.39;99468.88;1736801;82;21106;-83
2022/07/31 06:03:15;;;;;;;1.32;1.10;;;;;;;22.74;55.95;99467.35;1737336;82;21067;-81
2022/07/31 06:05:46;;;;;;;3.12;1.30;;;;;;;22.81;55.59;99468.05;1734287;82;21142;-81
2022/07/31 06:08:13;;;;;;;3.25;1.25;;;;;;;22.89;55.20;99468.70;1737197;82;20976;-82
2022/07/31 06:10:41;;;;;;;5.10;1.30;;;;;;;22.96;55.44;99465.87;1737106;82;21102;-84
2022/07/31 06:13:07;;;;;;;2.37;1.07;;;;;;;23.06;55.45;99465.05;1737955;82;21110;-84
2022/07/31 06:15:35;;;;;;;2.15;1.20;;;;;;;23.15;54.64;99465.63;1737017;82;21015;-82
2022/07/31 06:18:01;;;;;;;1.98;1.05;;;;;;;23.20;53.77;99458.02;1723801;82;21115;-83
2022/07/31 06:20:28;;;;;;;1.90;1.27;;;;;;;23.27;53.16;99458.33;1715401;82;21053;-82
2022/07/31 06:22:55;;;;;;;1.40;1.00;;;;;;;23.33;53.68;99457.77;1715015;83;21053;-82
2022/07/31 06:25:22;;;;;;;6.67;1.60;;;;;;;23.41;53.81;99453.91;1693075;83;21100;-84
2022/07/31 06:27:49;;;;;;;4.53;1.22;;;;;;;23.51;54.11;99459.30;1715309;82;21152;-83
2022/07/31 06:30:16;;;;;;;1.10;1.00;;;;;;;23.59;52.89;99455.44;1715083;83;21106;-84
2022/07/31 06:32:43;;;;;;;5.28;1.30;;;;;;;23.67;52.38;99448.02;1715144;82;21510;-81
2022/07/31 06:35:10;;;;;;;6.62;1.22;;;;;;;23.76;52.11;99450.39;1715019;83;21739;-81
2022/07/31 06:37:39;;;;;;;5.42;1.10;;;;;;;23.83;51.61;99450.20;1712602;83;21069;-81
2022/07/31 06:40:07;;;;;;;2.08;1.20;;;;;;;23.88;51.81;99446.61;1715391;82;20990;-84
2022/07/31 06:42:44;;;;;;;4.30;1.22;;;;;;;23.94;51.50;99450.09;1715444;83;21116;-82
2022/07/31 06:45:13;;;;;;;4.97;1.42;;;;;;;24.01;51.50;99440.46;1714957;83;21010;-83
2022/07/31 06:47:58;;;;;;;5.12;1.32;;;;;;;24.10;51.83;99442.28;1715430;82;21086;-81
2022/07/31 06:50:31;;;;;;;7.47;1.32;;;;;;;24.20;50.97;99434.22;1714765;83;21073;-84
2022/07/31 06:53:00;;;;;;;4.60;1.40;;;;;;;24.28;50.49;99432.17;1714241;83;21089;-81
2022/07/31 06:55:26;;;;;;;10.05;1.62;;;;;;;24.36;50.12;99428.28;1715707;82;22322;-82
2022/07/31 06:57:53;;;;;;;6.55;1.60;;;;;;;24.42;50.08;99430.37;1715298;83;21069;-83
2022/07/31 07:00:20;;;;;;;2.27;1.30;;;;;;;24.51;49.93;99429.16;1715291;83;21058;-81
2022/07/31 07:02:47;;;;;;;6.08;1.62;;;;;;;24.59;48.82;99426.62;1714886;83;21069;-84
2022/07/31 07:05:14;;;;;;;9.25;1.60;;;;;;;24.65;48.63;99424.20;1714989;83;21124;-84
2022/07/31 07:07:42;;;;;;;3.67;1.65;;;;;;;24.74;48.66;99425.16;1714952;82;21659;-84
2022/07/31 07:10:08;;;;;;;5.50;1.67;;;;;;;24.80;47.79;99424.58;1715168;83;21080;-82
2022/07/31 07:12:54;;;;;;;2.65;1.57;;;;;;;24.84;46.57;99427.31;1715248;83;21104;-82
2022/07/31 07:15:21;;;;;;;5.85;1.50;;;;;;;24.90;45.93;99430.41;1715421;82;21077;-82
2022/07/31 07:17:48;;;;;;;8.75;1.62;;;;;;;24.95;46.50;99430.81;1715019;83;21505;-82
2022/07/31 07:20:16;;;;;;;3.08;1.40;;;;;;;25.00;45.96;99423.17;1715011;82;21114;-81
2022/07/31 07:22:43;;;;;;;3.87;1.52;;;;;;;25.08;45.58;99423.77;1715342;83;21109;-83
2022/07/31 07:25:11;;;;;;;8.05;1.50;;;;;;;25.15;45.79;99413.61;1715292;82;21076;-83
2022/07/31 07:27:39;;;;;;;4.85;1.42;;;;;;;25.22;44.99;99410.66;1714995;83;37703;-81
2022/07/31 07:30:07;;;;;;;2.30;1.00;;;;;;;25.30;45.32;99407.73;1714758;83;21062;-81
2022/07/31 07:32:34;;;;;;;3.10;1.00;;;;;;;25.37;44.68;99410.20;1715129;82;21179;-83
2022/07/31 07:35:02;;;;;;;2.20;0.93;;;;;;;25.43;43.67;99416.81;1714739;83;21069;-84
2022/07/31 07:37:31;;;;;;;9.03;2.00;;;;;;;25.47;44.28;99410.11;1707665;83;21089;-83
2022/07/31 07:39:58;;;;;;;6.03;1.17;;;;;;;25.52;43.72;99404.64;1715065;83;21033;-82
2022/07/31 07:42:24;;;;;;;3.22;0.80;;;;;;;25.57;42.99;99405.50;1715690;82;21149;-80
2022/07/31 07:44:51;;;;;;;4.65;0.88;;;;;;;25.64;43.22;99412.48;1715206;82;21133;-80
2022/07/31 07:47:19;;;;;;;9.40;0.85;;;;;;;25.70;42.84;99403.80;1714859;83;21563;-83
2022/07/31 07:49:47;;;;;;;2.98;0.98;;;;;;;25.78;42.58;99405.23;1715236;83;21113;-82
2022/07/31 07:52:21;;;;;;;2.50;0.82;;;;;;;25.85;42.62;99402.25;1690951;80;21014;-82
2022/07/31 07:55:08;;;;;;;2.52;1.05;;;;;;;25.95;42.55;99400.86;1728936;82;21065;-82
2022/07/31 07:57:39;;;;;;;4.75;1.37;;;;;;;26.06;42.21;99404.67;1704469;84;21111;-80
2022/07/31 08:00:25;;;;;;;2.80;1.00;;;;;;;26.17;41.22;99404.92;1687559;85;21134;-82
2022/07/31 08:02:56;;;;;;;6.85;1.25;;;;;;;26.24;40.89;99400.61;1652193;86;21117;-82
2022/07/31 08:05:23;;;;;;;1.25;1.05;;;;;;;26.31;40.63;99398.14;1694712;83;21104;-84
2022/07/31 08:07:50;;;;;;;3.17;1.20;;;;;;;26.39;40.15;99397.33;1707812;83;21070;-83
2022/07/31 08:10:22;;;;;;;1.95;0.90;;;;;;;26.46;38.76;99401.08;1702821;83;21078;-82
2022/07/31 08:12:57;;;;;;;2.77;1.05;;;;;;;26.50;38.88;99394.38;1705729;83;21065;-83
2022/07/31 08:15:30;;;;;;;5.87;1.00;;;;;;;26.58;38.79;99396.27;1707597;83;21058;-83
2022/07/31 08:17:58;;;;;;;7.92;0.88;;;;;;;26.65;37.76;99406.31;1705792;83;20998;-83
2022/07/31 08:20:27;;;;;;;7.75;0.90;;;;;;;26.73;37.08;99393.86;1725154;82;21060;-83
2022/07/31 08:22:53;;;;;;;2.10;0.88;;;;;;;26.79;37.88;99401.33;1725482;82;21207;-84
2022/07/31 08:25:20;;;;;;;2.40;0.80;;;;;;;26.85;38.00;99401.53;1725812;83;21075;-82
2022/07/31 08:27:48;;;;;;;7.03;1.07;;;;;;;26.93;37.80;99398.01;1725363;83;21076;-82
2022/07/31 08:30:15;;;;;;;1.25;0.70;;;;;;;26.96;36.97;99403.60;1725625;82;21017;-80
2022/07/31 08:32:42;;;;;;;4.37;0.88;;;;;;;26.98;37.55;99383.55;1725399;83;20966;-82
2022/07/31 08:35:27;;;;;;;7.03;1.45;;;;;;;27.04;37.54;99396.89;1725141;83;21191;-82
2022/07/31 08:37:54;;;;;;;4.92;0.80;;;;;;;27.12;37.23;99384.78;1725606;83;21017;-80
2022/07/31 08:40:21;;;;;;;5.15;0.72;;;;;;;27.17;36.50;99387.00;1725500;83;21072;-83
2022/07/31 08:42:49;;;;;;;1.30;0.80;;;;;;;27.22;36.73;99383.30;1725199;83;21163;-82
2022/07/31 08:45:15;;;;;;;2.12;0.72;;;;;;;27.30;37.28;99375.22;1725645;82;21083;-84
2022/07/31 08:47:46;;;;;;;0.90;0.50;;;;;;;27.38;36.94;99375.25;1725240;82;21495;-83
2022/07/31 08:50:16;;;;;;;2.00;0.72;;;;;;;27.43;36.48;99370.19;1725667;82;21069;-80
2022/07/31 08:52:44;;;;;;;5.28;0.88;;;;;;;27.47;37.05;99363.11;1725745;82;21072;-83
2022/07/31 08:55:18;;;;;;;3.35;1.02;;;;;;;27.53;37.50;99367.86;1725315;82;21489;-83
2022/07/31 08:57:47;;;;;;;1.35;0.80;;;;;;;27.59;37.62;99358.59;1725487;83;21013;-83
2022/07/31 09:00:16;;;;;;;5.45;0.80;;;;;;;27.68;37.68;99366.19;1726150;82;21731;-82
2022/07/31 09:02:43;;;;;;;1.07;0.65;;;;;;;27.74;38.21;99362.83;1725600;83;21670;-83
2022/07/31 09:05:25;;;;;;;6.42;0.82;;;;;;;27.84;38.58;99360.45;1726020;83;21417;-84
2022/07/31 09:07:52;;;;;;;3.05;1.32;;;;;;;27.95;38.54;99360.16;1725538;83;21627;-84
2022/07/31 09:10:23;;;;;;;13.60;0.80;;;;;;;28.05;38.10;99357.29;1725544;82;21656;-83
2022/07/31 09:12:52;;;;;;;1.27;0.72;;;;;;;28.13;37.91;99351.36;1725856;82;21579;-82
2022/07/31 09:15:23;;;;;;;1.02;0.65;;;;;;;28.22;37.87;99355.41;1727304;82;21591;-84
2022/07/31 09:17:50;;;;;;;3.42;0.70;;;;;;;28.26;37.76;99353.55;1725488;82;21138;-83
2022/07/31 09:20:19;;;;;;;2.05;0.75;;;;;;;28.31;37.87;99348.95;1726082;82;21096;-82
2022/07/31 09:22:46;;;;;;;2.27;0.98;;;;;;;28.38;37.30;99355.39;1704751;83;21091;-80
2022/07/31 09:25:17;;;;;;;4.60;0.90;;;;;;;28.39;35.70;99347.59;1725880;82;21508;-82
2022/07/31 09:27:46;;;;;;;1.55;0.55;;;;;;;28.41;35.81;99342.02;1726049;83;21135;-78
2022/07/31 09:30:14;;;;;;;2.62;0.90;;;;;;;28.47;36.60;99346.23;1725622;82;21661;-84
2022/07/31 09:33:15;;;;;;;6.03;0.80;;;;;;;28.56;36.80;99346.23;1725723;83;21127;-83
2022/07/31 09:35:59;;;;;;;4.45;0.70;;;;;;;28.67;37.03;99348.58;1725929;82;21109;-83
2022/07/31 09:38:31;;;;;;;0.95;0.78;;;;;;;28.76;35.10;99342.11;1726309;83;21135;-82
2022/07/31 09:41:18;;;;;;;3.12;0.80;;;;;;;28.83;35.89;99339.54;1726156;82;21457;-81
2022/07/31 09:44:01;;;;;;;3.12;0.80;;;;;;;28.97;36.56;99342.05;1723606;82;21068;-84
2022/07/31 09:46:39;;;;;;;4.67;0.70;;;;;;;29.10;35.43;99332.80;1725640;83;21127;-83
2022/07/31 09:49:06;;;;;;;4.60;0.65;;;;;;;29.20;35.11;99334.84;1725730;83;21147;-83
2022/07/31 09:51:39;;;;;;;1.85;0.70;;;;;;;29.28;34.62;99329.34;1684393;80;21759;-83
2022/07/31 09:54:07;;;;;;;1.07;0.70;;;;;;;29.34;34.38;99324.27;1758166;80;21739;-83
2022/07/31 09:56:48;;;;;;;3.22;0.68;;;;;;;29.38;35.05;99322.87;1758914;81;21067;-82
2022/07/31 09:59:16;;;;;;;4.78;0.82;;;;;;;29.46;35.69;99322.81;1762397;80;21005;-81
2022/07/31 10:01:42;;;;;;;3.08;0.70;;;;;;;29.56;35.16;99326.12;1762361;81;21005;-83
2022/07/31 10:04:09;;;;;;;6.62;0.90;;;;;;;29.64;34.63;99316.58;1762099;80;21239;-84
2022/07/31 10:06:36;;;;;;;1.37;0.62;;;;;;;29.72;33.91;99314.82;1762270;80;21038;-84
2022/07/31 10:09:03;;;;;;;6.33;0.75;;;;;;;29.75;34.37;99318.53;1762707;80;21072;-84
2022/07/31 10:11:32;;;;;;;4.42;0.70;;;;;;;29.79;34.01;99315.80;1759599;81;21572;-84
2022/07/31 10:14:18;;;;;;;2.77;1.05;;;;;;;29.82;33.68;99314.95;1754610;81;21091;-84
2022/07/31 10:16:45;;;;;;;3.05;0.85;;;;;;;29.86;33.11;99303.71;1728536;83;21143;-82
2022/07/31 10:19:22;;;;;;;5.30;0.70;;;;;;;29.92;33.47;99302.98;1681802;82;21075;-84
2022/07/31 10:22:08;;;;;;;3.55;0.98;;;;;;;29.99;33.72;99304.80;1728233;83;21064;-82
2022/07/31 10:24:40;;;;;;;4.05;0.95;;;;;;;30.03;33.43;99300.33;1728418;83;21057;-83
2022/07/31 10:27:07;;;;;;;9.35;0.88;;;;;;;30.02;32.99;99299.50;1727754;83;21071;-81
2022/07/31 10:29:34;;;;;;;1.42;0.70;;;;;;;30.06;33.38;99292.70;1656346;82;21158;-81
2022/07/31 10:32:02;;;;;;;2.20;0.80;;;;;;;30.12;33.24;99295.17;1679133;82;21044;-81
2022/07/31 10:34:31;;;;;;;1.92;0.85;;;;;;;30.15;33.33;99299.70;1728036;82;21567;-84
2022/07/31 10:37:21;;;;;;;7.90;0.90;;;;;;;30.18;32.88;99297.16;1686458;82;21037;-83
2022/07/31 10:40:18;;;;;;;3.60;0.90;;;;;;;30.18;32.43;99290.37;1728323;83;21068;-82
2022/07/31 10:43:21;;;;;;;12.00;1.60;;;;;;;30.18;32.44;99298.51;1727460;82;21094;-81
2022/07/31 10:46:05;;;;;;;1.80;1.05;;;;;;;30.16;32.76;99295.98;1727650;82;21053;-81
2022/07/31 10:48:51;;;;;;;5.47;1.00;;;;;;;30.16;32.03;99286.48;1680760;83;21017;-82
2022/07/31 10:51:50;;;;;;;1.47;0.72;;;;;;;30.19;32.56;99291.54;1723936;82;21076;-84
2022/07/31 10:54:44;;;;;;;1.95;0.65;;;;;;;30.24;32.85;99286.89;1699151;84;21650;-82
2022/07/31 10:57:33;;;;;;;3.30;1.10;;;;;;;30.37;32.75;99289.83;1607384;88;21243;-81
2022/07/31 11:00:21;;;;;;;5.35;0.70;;;;;;;30.47;32.04;99287.36;1607547;88;21124;-83
2022/07/31 11:02:52;;;;;;;1.82;0.70;;;;;;;30.53;31.50;99282.52;1633737;84;21466;-82
2022/07/31 11:05:26;;;;;;;3.72;0.53;;;;;;;30.56;31.28;99276.72;1697247;84;21522;-84
2022/07/31 11:08:06;;;;;;;6.12;0.80;;;;;;;30.58;31.33;99278.75;1641519;84;21058;-83
2022/07/31 11:10:52;;;;;;;5.72;0.72;;;;;;;30.63;31.37;99277.67;1699640;84;21913;-82
2022/07/31 11:13:46;;;;;;;2.80;0.80;;;;;;;30.66;31.64;99273.72;1700250;83;21058;-82
2022/07/31 11:16:15;;;;;;;3.10;0.60;;;;;;;30.67;31.58;99260.48;1698311;84;22354;-84
2022/07/31 11:18:56;;;;;;;3.50;0.60;;;;;;;30.71;30.68;99266.67;1699258;84;21124;-84
2022/07/31 11:21:36;;;;;;;11.48;1.10;;;;;;;30.73;31.10;99263.28;1679132;84;20998;-83
2022/07/31 11:24:20;;;;;;;1.02;0.50;;;;;;;30.78;31.10;99259.97;1698905;84;21143;-82
2022/07/31 11:26:51;;;;;;;4.65;0.75;;;;;;;30.81;31.54;99252.80;1698986;83;21077;-83
2022/07/31 11:29:34;;;;;;;2.25;0.90;;;;;;;30.87;31.68;99252.05;1700225;84;21555;-83
2022/07/31 11:32:12;;;;;;;4.00;0.80;;;;;;;30.93;31.17;99250.43;1699759;83;21565;-81
2022/07/31 11:34:52;;;;;;;1.50;0.80;;;;;;;30.97;31.71;99250.42;1699738;84;21057;-85
2022/07/31 11:37:22;;;;;;;3.25;1.00;;;;;;;31.05;31.44;99251.66;1699041;84;21192;-80
2022/07/31 11:39:51;;;;;;;3.67;0.50;;;;;;;31.08;30.52;99253.14;1699701;84;21022;-82
2022/07/31 11:42:19;;;;;;;1.87;0.78;;;;;;;31.05;30.81;99248.95;1699484;83;21149;-83
2022/07/31 11:44:46;;;;;;;1.98;0.70;;;;;;;31.04;31.27;99251.33;1699131;84;21609;-84
2022/07/31 11:47:12;;;;;;;4.30;0.85;;;;;;;31.01;30.48;99247.63;1698965;84;21639;-81
2022/07/31 11:49:39;;;;;;;3.52;0.60;;;;;;;30.97;29.90;99252.27;1698863;84;21171;-82
2022/07/31 11:52:08;;;;;;;5.97;0.70;;;;;;;30.90;30.07;99241.30;1727141;81;21090;-83